Time,TemperatureF,DewpointF,PressureIn,WindDirection,WindDirectionDegrees,WindSpeedMPH,WindSpeedGustMPH,Humidity,HourlyPrecipIn,Conditions,Clouds,dailyrainin,SoftwareType,DateUTC
2013-06-15 00:00:00,70.5,64.0,29.93,SSE,150,0.0,8.0,80,0.00,,SKC,0.04,VWS V12.07,2013-06-15 05:00:00,
2013-06-15 00:07:00,70.6,63.8,29.93,SE,134,4.0,7.0,79,0.00,,SKC,0.00,VWS V12.07,2013-06-15 05:07:00,
2013-06-15 00:14:00,71.1,63.5,29.94,SSE,152,4.0,9.0,77,0.00,,SKC,0.00,VWS V12.07,2013-06-15 05:14:00,
2013-06-15 00:20:00,71.3,63.3,29.96,SE,138,2.0,9.0,76,0.00,,SKC,0.00,VWS V12.07,2013-06-15 05:20:00,
2013-06-15 00:27:00,71.2,63.3,29.97,SE,129,3.0,9.0,76,0.00,,SKC,0.00,VWS V12.07,2013-06-15 05:27:00,
2013-06-15 00:34:00,71.4,63.1,29.97,SSE,151,3.0,6.0,75,0.00,,SKC,0.00,VWS V12.07,2013-06-15 05:34:00,
2013-06-15 00:40:00,71.3,63.0,29.98,SE,143,2.0,6.0,75,0.00,,SKC,0.00,VWS V12.07,2013-06-15 05:40:00,
2013-06-15 00:47:00,71.2,62.9,29.98,SE,138,3.0,6.0,75,0.00,,SKC,0.00,VWS V12.07,2013-06-15 05:47:00,
2013-06-15 00:54:00,71.1,62.8,29.99,ESE,122,3.0,6.0,75,0.00,,SKC,0.00,VWS V12.07,2013-06-15 05:54:00,
2013-06-15 01:00:00,70.8,62.9,29.99,SE,126,2.0,6.0,76,0.00,,SKC,0.00,VWS V12.07,2013-06-15 06:00:00,
2013-06-15 01:07:00,70.5,63.0,29.99,SE,139,3.0,5.0,77,0.00,,SKC,0.00,VWS V12.07,2013-06-15 06:07:00,
2013-06-15 01:14:00,70.4,62.8,29.99,SSE,156,3.0,5.0,77,0.00,,SKC,0.00,VWS V12.07,2013-06-15 06:14:00,
2013-06-15 01:20:00,70.3,62.8,29.99,SE,135,2.0,5.0,77,0.00,,SKC,0.00,VWS V12.07,2013-06-15 06:20:00,
2013-06-15 01:27:00,70.2,62.7,29.99,SE,138,3.0,6.0,77,0.00,,SKC,0.00,VWS V12.07,2013-06-15 06:27:00,
2013-06-15 01:34:00,70.3,62.8,29.98,SE,125,2.0,6.0,77,0.00,,SKC,0.00,VWS V12.07,2013-06-15 06:34:00,
2013-06-15 01:40:00,70.3,62.8,29.98,South,172,4.0,6.0,77,0.00,,SKC,0.00,VWS V12.07,2013-06-15 06:40:00,
2013-06-15 01:46:00,70.3,62.8,29.98,SSE,150,1.0,6.0,77,0.00,,SKC,0.00,VWS V12.07,2013-06-15 06:46:00,
2013-06-15 01:53:00,70.3,62.8,29.98,South,175,3.0,6.0,77,0.00,,SKC,0.00,VWS V12.07,2013-06-15 06:53:00,
2013-06-15 02:00:00,70.3,62.8,29.98,SSE,156,4.0,9.0,77,0.00,,SKC,0.00,VWS V12.07,2013-06-15 07:00:00,
2013-06-15 02:07:00,70.3,62.8,29.98,SE,135,4.0,6.0,77,0.00,,SKC,0.00,VWS V12.07,2013-06-15 07:07:00,
2013-06-15 02:14:00,70.3,62.8,29.99,South,188,2.0,7.0,77,0.00,,SKC,0.00,VWS V12.07,2013-06-15 07:14:00,
2013-06-15 02:19:00,70.3,62.4,30.00,SSE,148,3.0,7.0,76,0.00,,SKC,0.00,VWS V12.07,2013-06-15 07:19:00,
2013-06-15 02:27:00,70.3,62.4,30.00,South,170,2.0,7.0,76,0.00,,SKC,0.00,VWS V12.07,2013-06-15 07:27:00,
2013-06-15 02:34:00,70.3,62.8,29.99,SE,145,1.0,4.0,77,0.00,,SKC,0.00,VWS V12.07,2013-06-15 07:34:00,
2013-06-15 02:40:00,70.2,62.3,29.99,SSE,148,3.0,7.0,76,0.00,,SKC,0.00,VWS V12.07,2013-06-15 07:40:00,
2013-06-15 02:45:00,70.4,62.5,29.98,SE,134,1.0,7.0,76,0.00,,SKC,0.00,VWS V12.07,2013-06-15 07:45:00,
2013-06-15 02:52:00,70.5,62.6,29.99,WSW,252,1.0,7.0,76,0.00,,SKC,0.00,VWS V12.07,2013-06-15 07:52:00,
2013-06-15 02:58:00,70.6,62.7,30.03,NW,304,12.0,15.0,76,0.00,,SKC,0.00,VWS V12.07,2013-06-15 07:58:00,
2013-06-15 03:04:00,70.9,63.7,30.09,NW,311,10.0,20.0,78,0.00,,SKC,0.00,VWS V12.07,2013-06-15 08:04:00,
2013-06-15 03:12:00,71.7,63.4,30.08,NNW,333,10.0,21.0,75,0.00,,SKC,0.00,VWS V12.07,2013-06-15 08:12:00,
2013-06-15 03:18:00,72.1,63.4,30.07,NW,318,1.0,21.0,74,0.00,,SKC,0.00,VWS V12.07,2013-06-15 08:18:00,
2013-06-15 03:24:00,72.0,63.7,30.08,North,349,0.0,21.0,75,0.00,,SKC,0.00,VWS V12.07,2013-06-15 08:24:00,
2013-06-15 03:31:00,71.3,64.5,30.08,North,356,0.0,0.0,79,0.00,,SKC,0.00,VWS V12.07,2013-06-15 08:31:00,
2013-06-15 03:38:00,70.3,64.2,30.07,ESE,103,1.0,1.0,81,0.00,,SKC,0.00,VWS V12.07,2013-06-15 08:38:00,
2013-06-15 03:44:00,69.6,64.6,30.06,SSE,148,0.0,1.0,84,0.00,,SKC,0.00,VWS V12.07,2013-06-15 08:44:00,
2013-06-15 03:52:00,68.8,64.4,30.05,East,101,0.0,1.0,86,0.00,,SKC,0.00,VWS V12.07,2013-06-15 08:52:00,
2013-06-15 03:58:00,68.3,64.3,30.05,ESE,122,4.0,4.0,87,0.00,,SKC,0.00,VWS V12.07,2013-06-15 08:58:00,
2013-06-15 04:04:00,67.9,64.2,30.05,ESE,106,4.0,5.0,88,0.00,,SKC,0.00,VWS V12.07,2013-06-15 09:04:00,
2013-06-15 04:11:00,67.6,64.2,30.04,NE,52,4.0,5.0,89,0.00,,SKC,0.00,VWS V12.07,2013-06-15 09:11:00,
2013-06-15 04:18:00,67.9,64.2,30.04,ESE,105,5.0,9.0,88,0.00,,SKC,0.00,VWS V12.07,2013-06-15 09:18:00,
2013-06-15 04:25:00,68.0,64.3,30.03,ESE,120,3.0,9.0,88,0.00,,SKC,0.00,VWS V12.07,2013-06-15 09:25:00,
2013-06-15 04:31:00,67.9,64.2,30.02,East,85,3.0,5.0,88,0.00,,SKC,0.00,VWS V12.07,2013-06-15 09:31:00,
2013-06-15 04:38:00,67.5,64.5,30.02,SE,125,4.0,7.0,90,0.01,,SKC,0.01,VWS V12.07,2013-06-15 09:38:00,
2013-06-15 04:44:00,67.3,64.6,30.03,SSE,148,2.0,10.0,91,0.01,,SKC,0.01,VWS V12.07,2013-06-15 09:44:00,
2013-06-15 04:51:00,67.0,64.6,30.03,SE,142,0.0,10.0,92,0.01,,SKC,0.01,VWS V12.07,2013-06-15 09:51:00,
2013-06-15 04:58:00,66.7,64.6,30.03,SE,132,1.0,10.0,93,0.01,,SKC,0.01,VWS V12.07,2013-06-15 09:58:00,
2013-06-15 05:04:00,66.6,64.5,30.03,WSW,245,1.0,3.0,93,0.01,,SKC,0.01,VWS V12.07,2013-06-15 10:04:00,
2013-06-15 05:12:00,66.4,64.6,30.02,WNW,290,0.0,3.0,94,0.01,,SKC,0.01,VWS V12.07,2013-06-15 10:12:00,
2013-06-15 05:18:00,66.2,64.4,29.99,South,183,8.0,11.0,94,0.02,,SKC,0.02,VWS V12.07,2013-06-15 10:18:00,
2013-06-15 05:24:00,66.2,64.4,29.93,SE,128,9.0,15.0,94,0.02,,SKC,0.02,VWS V12.07,2013-06-15 10:24:00,
2013-06-15 05:31:00,66.1,64.3,29.92,SSE,162,11.0,17.0,94,0.02,,SKC,0.02,VWS V12.07,2013-06-15 10:31:00,
2013-06-15 05:38:00,66.2,64.7,29.92,SE,142,6.0,17.0,95,0.02,,SKC,0.02,VWS V12.07,2013-06-15 10:38:00,
2013-06-15 05:45:00,66.4,64.6,29.93,SSE,150,8.0,17.0,94,0.02,,SKC,0.02,VWS V12.07,2013-06-15 10:45:00,
2013-06-15 05:52:00,66.6,64.8,29.94,SE,125,2.0,17.0,94,0.02,,SKC,0.02,VWS V12.07,2013-06-15 10:52:00,
2013-06-15 05:59:00,66.8,64.7,29.95,SE,138,4.0,17.0,93,0.02,,SKC,0.02,VWS V12.07,2013-06-15 10:59:00,
2013-06-15 06:04:00,66.8,64.7,29.95,SE,134,3.0,4.0,93,0.01,,SKC,0.02,VWS V12.07,2013-06-15 11:04:00,
2013-06-15 06:12:00,66.9,64.8,29.95,SE,131,1.0,6.0,93,0.01,,SKC,0.02,VWS V12.07,2013-06-15 11:12:00,
2013-06-15 06:18:00,67.0,64.9,29.96,SW,219,0.0,6.0,93,0.01,,SKC,0.02,VWS V12.07,2013-06-15 11:18:00,
2013-06-15 06:24:00,66.9,64.8,29.97,SSE,162,1.0,6.0,93,0.01,,SKC,0.02,VWS V12.07,2013-06-15 11:24:00,
2013-06-15 06:32:00,67.4,64.7,29.96,SE,138,8.0,9.0,91,0.00,,SKC,0.02,VWS V12.07,2013-06-15 11:32:00,
2013-06-15 06:38:00,68.3,64.9,29.97,SSE,150,2.0,11.0,89,0.00,,SKC,0.02,VWS V12.07,2013-06-15 11:38:00,
2013-06-15 06:45:00,68.4,65.0,29.96,SW,222,1.0,11.0,89,0.00,,SKC,0.02,VWS V12.07,2013-06-15 11:45:00,
2013-06-15 06:52:00,68.1,65.1,29.97,NNW,328,1.0,11.0,90,0.00,,SKC,0.02,VWS V12.07,2013-06-15 11:52:00,
2013-06-15 06:58:00,67.9,65.5,29.97,West,275,0.0,11.0,92,0.00,,SKC,0.02,VWS V12.07,2013-06-15 11:58:00,
2013-06-15 07:05:00,67.8,65.4,29.97,SW,231,0.0,2.0,92,0.00,,SKC,0.02,VWS V12.07,2013-06-15 12:05:00,
2013-06-15 07:12:00,67.9,65.8,29.98,WSW,256,0.0,2.0,93,0.00,,SKC,0.02,VWS V12.07,2013-06-15 12:12:00,
2013-06-15 07:18:00,68.0,65.9,29.97,NW,318,0.0,2.0,93,0.00,,SKC,0.02,VWS V12.07,2013-06-15 12:18:00,
2013-06-15 07:24:00,68.2,65.8,29.97,WSW,239,1.0,4.0,92,0.00,,SKC,0.02,VWS V12.07,2013-06-15 12:24:00,
2013-06-15 07:32:00,68.5,65.8,29.98,WNW,285,0.0,2.0,91,0.00,,SKC,0.02,VWS V12.07,2013-06-15 12:32:00,
2013-06-15 07:38:00,68.6,65.9,29.98,ENE,58,1.0,4.0,91,0.00,,SKC,0.02,VWS V12.07,2013-06-15 12:38:00,
2013-06-15 07:44:00,68.8,66.1,29.97,SW,235,2.0,5.0,91,0.00,,SKC,0.02,VWS V12.07,2013-06-15 12:44:00,
2013-06-15 07:52:00,69.1,66.4,29.97,WSW,253,2.0,7.0,91,0.00,,SKC,0.02,VWS V12.07,2013-06-15 12:52:00,
2013-06-15 07:58:00,69.3,66.6,29.97,NW,319,0.0,7.0,91,0.00,,SKC,0.02,VWS V12.07,2013-06-15 12:58:00,
2013-06-15 08:05:00,69.5,66.8,29.97,WSW,240,3.0,6.0,91,0.00,,SKC,0.02,VWS V12.07,2013-06-15 13:05:00,
2013-06-15 08:11:00,69.9,67.2,29.97,South,170,0.0,6.0,91,0.00,,SKC,0.02,VWS V12.07,2013-06-15 13:11:00,
2013-06-15 08:18:00,70.6,67.5,29.97,SSE,162,2.0,6.0,90,0.00,,SKC,0.02,VWS V12.07,2013-06-15 13:18:00,
2013-06-15 08:24:00,71.1,67.4,29.97,West,265,0.0,8.0,88,0.00,,SKC,0.02,VWS V12.07,2013-06-15 13:24:00,
2013-06-15 08:32:00,71.2,67.5,29.97,SSW,207,2.0,5.0,88,0.00,,SKC,0.02,VWS V12.07,2013-06-15 13:32:00,
2013-06-15 08:38:00,71.4,67.7,29.97,SW,215,3.0,5.0,88,0.00,,SKC,0.02,VWS V12.07,2013-06-15 13:38:00,
2013-06-15 08:45:00,72.0,67.9,29.97,SW,218,1.0,9.0,87,0.00,,SKC,0.02,VWS V12.07,2013-06-15 13:45:00,
2013-06-15 08:52:00,72.8,68.4,29.96,SW,232,1.0,9.0,86,0.00,,SKC,0.02,VWS V12.07,2013-06-15 13:52:00,
2013-06-15 08:58:00,72.6,67.8,29.96,SSW,195,1.0,9.0,85,0.00,,SKC,0.02,VWS V12.07,2013-06-15 13:58:00,
2013-06-15 09:05:00,72.5,68.1,29.97,WSW,249,1.0,6.0,86,0.00,,SKC,0.02,VWS V12.07,2013-06-15 14:05:00,
2013-06-15 09:12:00,72.7,68.6,29.96,SE,141,1.0,6.0,87,0.00,,SKC,0.02,VWS V12.07,2013-06-15 14:12:00,
2013-06-15 09:19:00,73.1,68.7,29.96,West,267,0.0,6.0,86,0.00,,SKC,0.02,VWS V12.07,2013-06-15 14:19:00,
2013-06-15 09:25:00,73.2,68.8,29.96,East,93,0.0,6.0,86,0.00,,SKC,0.02,VWS V12.07,2013-06-15 14:25:00,
2013-06-15 09:32:00,73.4,69.0,29.96,WSW,257,0.0,0.0,86,0.00,,SKC,0.02,VWS V12.07,2013-06-15 14:32:00,
2013-06-15 09:39:00,73.7,68.9,29.96,South,180,0.0,4.0,85,0.00,,SKC,0.02,VWS V12.07,2013-06-15 14:39:00,
2013-06-15 09:45:00,74.0,69.2,29.96,WSW,249,1.0,5.0,85,0.00,,SKC,0.02,VWS V12.07,2013-06-15 14:45:00,
2013-06-15 09:52:00,74.8,69.3,29.95,SW,229,4.0,6.0,83,0.00,,SKC,0.02,VWS V12.07,2013-06-15 14:52:00,
2013-06-15 09:58:00,75.0,69.1,29.96,SW,235,4.0,7.0,82,0.00,,SKC,0.02,VWS V12.07,2013-06-15 14:58:00,
2013-06-15 10:05:00,75.6,70.1,29.96,SW,228,1.0,5.0,83,0.00,,SKC,0.02,VWS V12.07,2013-06-15 15:05:00,
2013-06-15 10:12:00,76.9,70.3,29.96,SSE,148,2.0,9.0,80,0.00,,SKC,0.02,VWS V12.07,2013-06-15 15:12:00,
2013-06-15 10:19:00,78.1,71.1,29.96,SW,215,3.0,9.0,79,0.00,,SKC,0.02,VWS V12.07,2013-06-15 15:19:00,
2013-06-15 10:25:00,79.0,71.2,29.96,SW,216,2.0,9.0,77,0.00,,SKC,0.02,VWS V12.07,2013-06-15 15:25:00,
2013-06-15 10:32:00,80.0,71.8,29.96,North,11,0.0,3.0,76,0.00,,SKC,0.02,VWS V12.07,2013-06-15 15:32:00,
2013-06-15 10:39:00,80.7,71.2,29.96,SW,232,3.0,6.0,73,0.00,,SKC,0.02,VWS V12.07,2013-06-15 15:39:00,
2013-06-15 10:45:00,81.4,70.7,29.96,SSE,166,0.0,6.0,70,0.00,,SKC,0.02,VWS V12.07,2013-06-15 15:45:00,
2013-06-15 10:52:00,82.1,72.2,29.96,WNW,282,1.0,7.0,72,0.00,,SKC,0.02,VWS V12.07,2013-06-15 15:52:00,
2013-06-15 10:59:00,82.7,71.5,29.96,SW,222,3.0,7.0,69,0.00,,SKC,0.02,VWS V12.07,2013-06-15 15:59:00,
2013-06-15 11:05:00,83.0,71.4,29.96,South,172,0.0,8.0,68,0.00,,SKC,0.02,VWS V12.07,2013-06-15 16:05:00,
2013-06-15 11:12:00,83.5,71.4,29.96,SW,219,3.0,8.0,67,0.00,,SKC,0.02,VWS V12.07,2013-06-15 16:12:00,
2013-06-15 11:19:00,84.2,71.6,29.96,SE,141,1.0,8.0,66,0.00,,SKC,0.02,VWS V12.07,2013-06-15 16:19:00,
2013-06-15 11:25:00,84.8,72.2,29.96,SSW,201,2.0,8.0,66,0.00,,SKC,0.02,VWS V12.07,2013-06-15 16:25:00,
2013-06-15 11:32:00,85.3,72.2,29.96,SSW,193,0.0,2.0,65,0.00,,SKC,0.02,VWS V12.07,2013-06-15 16:32:00,
2013-06-15 11:39:00,85.6,71.6,29.96,SE,136,3.0,5.0,63,0.00,,SKC,0.02,VWS V12.07,2013-06-15 16:39:00,
2013-06-15 11:45:00,85.4,70.9,29.96,SSE,153,4.0,6.0,62,0.00,,SKC,0.02,VWS V12.07,2013-06-15 16:45:00,
2013-06-15 11:52:00,85.4,71.8,29.96,SE,125,0.0,6.0,64,0.00,,SKC,0.02,VWS V12.07,2013-06-15 16:52:00,
2013-06-15 11:59:00,85.9,73.2,29.96,WSW,239,0.0,7.0,66,0.00,,SKC,0.02,VWS V12.07,2013-06-15 16:59:00,
2013-06-15 12:05:00,86.0,71.9,29.96,South,174,2.0,7.0,63,0.00,,SKC,0.02,VWS V12.07,2013-06-15 17:05:00,
2013-06-15 12:12:00,86.3,72.7,29.95,SSE,151,5.0,7.0,64,0.00,,SKC,0.02,VWS V12.07,2013-06-15 17:12:00,
2013-06-15 12:19:00,86.6,73.0,29.95,West,276,2.0,8.0,64,0.00,,SKC,0.02,VWS V12.07,2013-06-15 17:19:00,
2013-06-15 12:25:00,86.7,73.5,29.95,SSE,154,4.0,8.0,65,0.00,,SKC,0.02,VWS V12.07,2013-06-15 17:25:00,
2013-06-15 12:32:00,86.6,72.0,29.95,SSE,162,2.0,4.0,62,0.00,,SKC,0.02,VWS V12.07,2013-06-15 17:32:00,
2013-06-15 12:39:00,87.0,74.7,29.95,NNW,346,1.0,5.0,67,0.00,,SKC,0.02,VWS V12.07,2013-06-15 17:39:00,
2013-06-15 12:45:00,87.2,72.1,29.95,WSW,257,2.0,6.0,61,0.00,,SKC,0.02,VWS V12.07,2013-06-15 17:45:00,
2013-06-15 12:52:00,86.7,72.6,29.95,West,273,1.0,7.0,63,0.00,,SKC,0.02,VWS V12.07,2013-06-15 17:52:00,
2013-06-15 12:59:00,87.3,72.7,29.95,NW,308,4.0,7.0,62,0.00,,SKC,0.02,VWS V12.07,2013-06-15 17:59:00,
2013-06-15 13:05:00,86.9,71.3,29.95,NNW,335,4.0,11.0,60,0.00,,SKC,0.02,VWS V12.07,2013-06-15 18:05:00,
2013-06-15 13:12:00,86.7,73.1,29.95,WSW,248,5.0,11.0,64,0.00,,SKC,0.02,VWS V12.07,2013-06-15 18:12:00,
2013-06-15 13:19:00,86.8,72.2,29.95,WNW,300,2.0,11.0,62,0.00,,SKC,0.02,VWS V12.07,2013-06-15 18:19:00,
2013-06-15 13:25:00,87.4,74.7,29.95,WSW,252,2.0,11.0,66,0.00,,SKC,0.02,VWS V12.07,2013-06-15 18:25:00,
2013-06-15 13:32:00,87.5,73.4,29.95,West,266,3.0,7.0,63,0.00,,SKC,0.02,VWS V12.07,2013-06-15 18:32:00,
2013-06-15 13:39:00,87.4,74.2,29.95,West,269,3.0,7.0,65,0.00,,SKC,0.02,VWS V12.07,2013-06-15 18:39:00,
2013-06-15 13:45:00,87.5,73.8,29.95,SW,235,4.0,7.0,64,0.00,,SKC,0.02,VWS V12.07,2013-06-15 18:45:00,
2013-06-15 13:52:00,87.9,73.7,29.95,WSW,257,5.0,7.0,63,0.00,,SKC,0.02,VWS V12.07,2013-06-15 18:52:00,
2013-06-15 13:59:00,88.2,75.4,29.94,WSW,245,5.0,7.0,66,0.00,,SKC,0.02,VWS V12.07,2013-06-15 18:59:00,
2013-06-15 14:05:00,87.9,74.2,29.94,SW,225,1.0,8.0,64,0.00,,SKC,0.02,VWS V12.07,2013-06-15 19:05:00,
2013-06-15 14:12:00,88.8,76.0,29.94,WNW,283,3.0,8.0,66,0.00,,SKC,0.02,VWS V12.07,2013-06-15 19:12:00,
2013-06-15 14:19:00,88.6,73.9,29.94,WNW,291,5.0,9.0,62,0.00,,SKC,0.02,VWS V12.07,2013-06-15 19:19:00,
2013-06-15 14:25:00,88.2,75.0,29.94,WSW,248,3.0,9.0,65,0.00,,SKC,0.02,VWS V12.07,2013-06-15 19:25:00,
2013-06-15 14:34:00,88.5,75.2,29.94,NW,318,2.0,5.0,65,0.00,,SKC,0.02,VWS V12.07,2013-06-15 19:34:00,
2013-06-15 14:40:00,88.7,76.3,29.94,East,84,0.0,6.0,67,0.00,,SKC,0.02,VWS V12.07,2013-06-15 19:40:00,
2013-06-15 14:47:00,87.9,76.0,29.94,WSW,256,0.0,8.0,68,0.00,,SKC,0.02,VWS V12.07,2013-06-15 19:47:00,
2013-06-15 14:54:00,88.3,76.4,29.93,WNW,288,2.0,8.0,68,0.00,,SKC,0.02,VWS V12.07,2013-06-15 19:54:00,
2013-06-15 15:00:00,88.8,76.0,29.93,SSE,150,2.0,8.0,66,0.00,,SKC,0.02,VWS V12.07,2013-06-15 20:00:00,
2013-06-15 15:07:00,88.6,74.9,29.92,NNW,331,3.0,6.0,64,0.00,,SKC,0.02,VWS V12.07,2013-06-15 20:07:00,
2013-06-15 15:14:00,88.2,74.5,29.92,NW,315,2.0,6.0,64,0.00,,SKC,0.02,VWS V12.07,2013-06-15 20:14:00,
2013-06-15 15:20:00,87.8,75.5,29.92,WSW,253,0.0,6.0,67,0.00,,SKC,0.02,VWS V12.07,2013-06-15 20:20:00,
2013-06-15 15:27:00,88.8,76.9,29.91,SW,217,1.0,6.0,68,0.00,,SKC,0.02,VWS V12.07,2013-06-15 20:27:00,
2013-06-15 15:34:00,89.0,75.7,29.91,SW,219,0.0,4.0,65,0.00,,SKC,0.02,VWS V12.07,2013-06-15 20:34:00,
2013-06-15 15:40:00,88.8,76.0,29.91,SW,219,1.0,4.0,66,0.00,,SKC,0.02,VWS V12.07,2013-06-15 20:40:00,
2013-06-15 15:47:00,88.9,76.1,29.90,SSE,166,0.0,4.0,66,0.00,,SKC,0.02,VWS V12.07,2013-06-15 20:47:00,
2013-06-15 15:54:00,89.2,76.4,29.90,South,185,1.0,4.0,66,0.00,,SKC,0.02,VWS V12.07,2013-06-15 20:54:00,
2013-06-15 16:00:00,89.3,76.0,29.90,SSW,204,3.0,5.0,65,0.00,,SKC,0.02,VWS V12.07,2013-06-15 21:00:00,
2013-06-15 16:07:00,88.8,75.1,29.90,SSE,153,1.0,6.0,64,0.00,,SKC,0.02,VWS V12.07,2013-06-15 21:07:00,
2013-06-15 16:14:00,88.7,76.3,29.89,South,188,0.0,6.0,67,0.00,,SKC,0.02,VWS V12.07,2013-06-15 21:14:00,
2013-06-15 16:20:00,88.6,76.7,29.90,South,188,0.0,6.0,68,0.00,,SKC,0.02,VWS V12.07,2013-06-15 21:20:00,
2013-06-15 16:27:00,87.9,74.7,29.90,SW,215,0.0,6.0,65,0.00,,SKC,0.02,VWS V12.07,2013-06-15 21:27:00,
2013-06-15 16:34:00,87.3,75.0,29.90,West,267,0.0,2.0,67,0.00,,SKC,0.02,VWS V12.07,2013-06-15 21:34:00,
2013-06-15 16:40:00,86.9,74.6,29.90,West,278,0.0,3.0,67,0.00,,SKC,0.02,VWS V12.07,2013-06-15 21:40:00,
2013-06-15 16:47:00,86.6,75.2,29.90,WNW,290,1.0,3.0,69,0.00,,SKC,0.02,VWS V12.07,2013-06-15 21:47:00,
2013-06-15 16:54:00,86.3,75.4,29.89,West,260,0.0,3.0,70,0.00,,SKC,0.02,VWS V12.07,2013-06-15 21:54:00,
2013-06-15 16:59:00,86.2,74.8,29.90,West,267,0.0,3.0,69,0.00,,SKC,0.02,VWS V12.07,2013-06-15 21:59:00,
2013-06-15 17:05:00,86.3,75.4,29.88,West,266,0.0,1.0,70,0.00,,SKC,0.02,VWS V12.07,2013-06-15 22:05:00,
2013-06-15 17:12:00,86.4,75.0,29.89,West,264,0.0,1.0,69,0.00,,SKC,0.02,VWS V12.07,2013-06-15 22:12:00,
2013-06-15 17:19:00,86.3,76.2,29.88,SW,219,0.0,1.0,72,0.00,,SKC,0.02,VWS V12.07,2013-06-15 22:19:00,
2013-06-15 17:25:00,85.6,75.5,29.88,SE,146,0.0,1.0,72,0.00,,SKC,0.02,VWS V12.07,2013-06-15 22:25:00,
2013-06-15 17:34:00,85.0,75.4,29.88,SE,145,0.0,0.0,73,0.00,,SKC,0.02,VWS V12.07,2013-06-15 22:34:00,
2013-06-15 17:40:00,84.5,75.3,29.88,SSE,150,0.0,0.0,74,0.00,,SKC,0.02,VWS V12.07,2013-06-15 22:40:00,
2013-06-15 17:47:00,83.8,75.0,29.88,West,278,0.0,0.0,75,0.00,,SKC,0.02,VWS V12.07,2013-06-15 22:47:00,
2013-06-15 17:54:00,83.3,74.9,29.89,West,278,0.0,0.0,76,0.00,,SKC,0.02,VWS V12.07,2013-06-15 22:54:00,
2013-06-15 18:01:00,82.5,75.3,29.89,West,262,0.0,0.0,79,0.00,,SKC,0.02,VWS V12.07,2013-06-15 23:01:00,
2013-06-15 18:07:00,81.7,75.3,29.90,SW,228,0.0,1.0,81,0.00,,SKC,0.02,VWS V12.07,2013-06-15 23:07:00,
2013-06-15 18:14:00,79.5,73.5,29.91,South,169,12.0,13.0,82,0.09,,SKC,0.11,VWS V12.07,2013-06-15 23:14:00,
2013-06-15 18:20:00,76.4,70.9,29.92,South,185,1.0,17.0,83,0.13,,SKC,0.15,VWS V12.07,2013-06-15 23:20:00,
2013-06-15 18:27:00,74.1,69.3,29.91,South,174,4.0,17.0,85,0.13,,SKC,0.15,VWS V12.07,2013-06-15 23:27:00,
2013-06-15 18:34:00,73.2,69.4,29.92,West,262,1.0,3.0,88,0.14,,SKC,0.16,VWS V12.07,2013-06-15 23:34:00,
2013-06-15 18:40:00,72.8,69.4,29.94,South,187,2.0,3.0,89,0.14,,SKC,0.17,VWS V12.07,2013-06-15 23:40:00,
2013-06-15 18:47:00,72.2,68.8,29.94,SSE,150,4.0,5.0,89,0.16,,SKC,0.18,VWS V12.07,2013-06-15 23:47:00,
2013-06-15 18:54:00,71.2,67.5,29.95,SE,129,1.0,6.0,88,0.17,,SKC,0.19,VWS V12.07,2013-06-15 23:54:00,
2013-06-15 19:00:00,70.5,67.4,29.95,SE,141,0.0,6.0,90,0.18,,SKC,0.20,VWS V12.07,2013-06-16 00:00:00,
2013-06-15 19:07:00,70.3,67.6,29.94,WNW,283,0.0,4.0,91,0.23,,SKC,0.25,VWS V12.07,2013-06-16 00:07:00,
2013-06-15 19:14:00,69.9,68.1,29.97,West,280,3.0,5.0,94,0.25,,SKC,0.27,VWS V12.07,2013-06-16 00:14:00,
2013-06-15 19:21:00,70.0,67.9,29.99,NW,311,12.0,20.0,93,0.33,,SKC,0.35,VWS V12.07,2013-06-16 00:21:00,
2013-06-15 19:27:00,69.2,66.8,29.98,NNW,328,11.0,24.0,92,0.34,,SKC,0.36,VWS V12.07,2013-06-16 00:27:00,
2013-06-15 19:34:00,68.3,66.5,29.98,WNW,300,11.0,27.0,94,0.21,,SKC,0.37,VWS V12.07,2013-06-16 00:34:00,
2013-06-15 19:40:00,68.0,66.5,29.99,NW,311,5.0,27.0,95,0.22,,SKC,0.38,VWS V12.07,2013-06-16 00:40:00,
2013-06-15 19:47:00,67.9,66.7,30.00,NW,318,16.0,27.0,96,0.23,,SKC,0.39,VWS V12.07,2013-06-16 00:47:00,
2013-06-15 19:54:00,67.7,66.5,30.01,WNW,291,8.0,27.0,96,0.24,,SKC,0.40,VWS V12.07,2013-06-16 00:54:00,
2013-06-15 20:00:00,67.4,66.2,30.02,WNW,297,7.0,27.0,96,0.26,,SKC,0.42,VWS V12.07,2013-06-16 01:00:00,
2013-06-15 20:07:00,67.3,66.4,30.03,NW,305,3.0,8.0,97,0.24,,SKC,0.44,VWS V12.07,2013-06-16 01:07:00,
2013-06-15 20:14:00,67.1,66.2,30.03,NNW,329,2.0,12.0,97,0.27,,SKC,0.47,VWS V12.07,2013-06-16 01:14:00,
2013-06-15 20:20:00,67.1,66.2,30.02,SSW,201,2.0,12.0,97,0.29,,SKC,0.49,VWS V12.07,2013-06-16 01:20:00,
2013-06-15 20:27:00,67.0,66.1,30.02,West,264,3.0,12.0,97,0.31,,SKC,0.51,VWS V12.07,2013-06-16 01:27:00,
2013-06-15 20:34:00,66.9,66.3,30.01,WNW,302,0.0,4.0,98,0.15,,SKC,0.52,VWS V12.07,2013-06-16 01:34:00,
2013-06-15 20:40:00,66.9,66.3,30.00,NW,314,1.0,6.0,98,0.15,,SKC,0.52,VWS V12.07,2013-06-16 01:40:00,
2013-06-15 20:47:00,66.9,66.3,30.00,NNW,339,0.0,6.0,98,0.15,,SKC,0.52,VWS V12.07,2013-06-16 01:47:00,
2013-06-15 20:54:00,66.9,66.3,29.97,NNE,12,1.0,6.0,98,0.15,,SKC,0.52,VWS V12.07,2013-06-16 01:54:00,
2013-06-15 21:00:00,66.9,66.3,29.97,NNW,340,0.0,6.0,98,0.15,,SKC,0.52,VWS V12.07,2013-06-16 02:00:00,
2013-06-15 21:07:00,67.0,66.7,29.97,NNE,25,0.0,3.0,99,0.10,,SKC,0.52,VWS V12.07,2013-06-16 02:07:00,
2013-06-15 21:14:00,67.0,66.7,29.96,East,83,1.0,3.0,99,0.10,,SKC,0.52,VWS V12.07,2013-06-16 02:14:00,
2013-06-15 21:20:00,67.0,66.7,29.97,East,83,0.0,3.0,99,0.10,,SKC,0.52,VWS V12.07,2013-06-16 02:20:00,
2013-06-15 21:29:00,66.9,66.6,29.98,NE,47,0.0,5.0,99,0.10,,SKC,0.52,VWS V12.07,2013-06-16 02:29:00,
2013-06-15 21:35:00,66.9,66.6,29.98,NW,305,1.0,3.0,99,0.01,,SKC,0.52,VWS V12.07,2013-06-16 02:35:00,
2013-06-15 21:42:00,66.9,66.6,29.98,ENE,71,2.0,4.0,99,0.02,,SKC,0.53,VWS V12.07,2013-06-16 02:42:00,
2013-06-15 21:49:00,67.0,66.7,29.99,NNE,33,1.0,5.0,99,0.02,,SKC,0.53,VWS V12.07,2013-06-16 02:49:00,
2013-06-15 21:55:00,67.0,66.7,30.00,NNE,25,1.0,5.0,99,0.02,,SKC,0.53,VWS V12.07,2013-06-16 02:55:00,
2013-06-15 22:04:00,66.9,66.6,29.99,SE,134,1.0,4.0,99,0.02,,SKC,0.54,VWS V12.07,2013-06-16 03:04:00,
2013-06-15 22:14:00,66.9,66.6,29.99,ENE,70,2.0,6.0,99,0.02,,SKC,0.54,VWS V12.07,2013-06-16 03:14:00,
2013-06-15 22:19:00,66.9,66.6,29.99,ENE,70,6.0,6.0,99,0.02,,SKC,0.54,VWS V12.07,2013-06-16 03:19:00,
2013-06-15 22:24:00,66.9,66.6,29.98,ESE,122,1.0,6.0,99,0.02,,SKC,0.54,VWS V12.07,2013-06-16 03:24:00,
2013-06-15 22:32:00,66.8,66.5,29.99,ESE,122,4.0,4.0,99,0.02,,SKC,0.54,VWS V12.07,2013-06-16 03:32:00,
2013-06-15 22:39:00,66.8,66.5,30.00,ESE,121,1.0,7.0,99,0.02,,SKC,0.54,VWS V12.07,2013-06-16 03:39:00,
2013-06-15 22:45:00,66.8,66.5,30.01,NNE,22,0.0,7.0,99,0.02,,SKC,0.54,VWS V12.07,2013-06-16 03:45:00,
2013-06-15 22:52:00,66.8,66.5,30.00,NNE,19,0.0,7.0,99,0.02,,SKC,0.54,VWS V12.07,2013-06-16 03:52:00,
2013-06-15 22:59:00,66.8,66.5,29.99,ENE,58,5.0,7.0,99,0.02,,SKC,0.54,VWS V12.07,2013-06-16 03:59:00,
2013-06-15 23:02:00,66.8,66.5,29.99,NNW,342,1.0,5.0,99,0.01,,SKC,0.54,VWS V12.07,2013-06-16 04:02:00,
2013-06-15 23:05:00,66.8,66.5,30.00,ENE,61,1.0,5.0,99,0.01,,SKC,0.54,VWS V12.07,2013-06-16 04:05:00,
2013-06-15 23:09:00,66.8,66.5,30.01,NE,49,0.0,5.0,99,0.01,,SKC,0.54,VWS V12.07,2013-06-16 04:09:00,
2013-06-15 23:12:00,66.8,66.5,30.01,SE,133,0.0,5.0,99,0.01,,SKC,0.54,VWS V12.07,2013-06-16 04:12:00,
2013-06-15 23:19:00,66.8,66.5,30.01,SSE,151,2.0,6.0,99,0.02,,SKC,0.55,VWS V12.07,2013-06-16 04:19:00,
2013-06-15 23:22:00,66.8,66.5,30.01,SE,134,2.0,6.0,99,0.02,,SKC,0.55,VWS V12.07,2013-06-16 04:22:00,
2013-06-15 23:29:00,66.7,66.7,30.01,ESE,113,1.0,6.0,100,0.02,,SKC,0.55,VWS V12.07,2013-06-16 04:29:00,
2013-06-15 23:37:00,66.7,66.7,30.01,ESE,107,2.0,3.0,100,0.02,,SKC,0.56,VWS V12.07,2013-06-16 04:37:00,
2013-06-15 23:44:00,66.7,66.7,30.01,ESE,105,0.0,3.0,100,0.02,,SKC,0.56,VWS V12.07,2013-06-16 04:44:00,
2013-06-15 23:50:00,66.6,66.6,30.01,ESE,105,1.0,3.0,100,0.02,,SKC,0.56,VWS V12.07,2013-06-16 04:50:00,
2013-06-15 23:57:00,66.6,66.6,30.00,South,171,2.0,4.0,100,0.02,,SKC,0.56,VWS V12.07,2013-06-16 04:57:00,